Latest Weather Observations for St Kilda Harbour RMYS

IDV60801

Issued at 9:12 am EST Thursday 1 October 2020 (issued every 10 minutes, with the page automatically refreshed every 10 minutes)

About weather observations | Map of weather stations | Latest weather observations for VIC | Other Formats
Station Details ID: 086220 Name: ST KILDA HARBOUR - RMYS Lat: -37.86 Lon: 144.96 Height: 6.4 m
Data from the previous 72 hours. | See also: Recent months at St Kilda Harbour RMYS
Date/Time
EST
Temp
°C
App
Temp
°C
Dew
Point
°C
Rel
Hum
%
Delta-T
°C
Wind Press
QNH
hPa
Press
MSL
hPa
Rain since
9am
mm
Dir  Spd
km/h
Gust
km/h
Spd
kts
Gust
kts
01/09:00am - - - - - WNW 19 26 10 14 - - -
01/08:30am - - - - - WNW 20 28 11 15 - - -
01/08:00am - - - - - NW 20 26 11 14 - - -
01/07:30am - - - - - NW 17 24 9 13 - - -
01/07:00am - - - - - NNW 13 19 7 10 - - -
01/06:30am - - - - - NNW 13 17 7 9 - - -
01/06:00am - - - - - NW 19 22 10 12 - - -
01/05:30am - - - - - NW 17 20 9 11 - - -
01/05:00am - - - - - NW 17 20 9 11 - - -
01/04:30am - - - - - NW 15 19 8 10 - - -
01/04:00am - - - - - WNW 22 28 12 15 - - -
01/03:30am - - - - - WNW 20 28 11 15 - - -
01/03:00am - - - - - NW 13 19 7 10 - - -
01/02:30am - - - - - NW 19 24 10 13 - - -
01/02:00am - - - - - WNW 19 24 10 13 - - -
01/01:30am - - - - - WNW 22 28 12 15 - - -
01/01:00am - - - - - WNW 24 30 13 16 - - -
01/12:30am - - - - - WNW 22 28 12 15 - - -
01/12:00am - - - - - WNW 20 26 11 14 - - -
 
Date/Time
EST
Temp
°C
App
Temp
°C
Dew
Point
°C
Rel
Hum
%
Delta-T
°C
Wind Press
QNH
hPa
Press
MSL
hPa
Rain since
9am
mm
Dir  Spd
km/h
Gust
km/h
Spd
kts
Gust
kts
30/11:30pm - - - - - W 22 26 12 14 - - -
30/11:00pm - - - - - W 24 30 13 16 - - -
30/10:30pm - - - - - W 26 32 14 17 - - -
30/10:00pm - - - - - W 35 44 19 24 - - -
30/09:38pm - - - - - W 35 56 19 30 - - -
30/09:30pm - - - - - W 28 46 15 25 - - -
30/09:00pm - - - - - NW 24 33 13 18 - - -
30/08:30pm - - - - - W 35 43 19 23 - - -
30/08:08pm - - - - - WSW 32 52 17 28 - - -
30/08:00pm - - - - - WSW 24 33 13 18 - - -
30/07:30pm - - - - - NW 19 26 10 14 - - -
30/07:00pm - - - - - NNW 20 24 11 13 - - -
30/06:30pm - - - - - NNW 19 24 10 13 - - -
30/06:00pm - - - - - NNW 22 32 12 17 - - -
30/05:30pm - - - - - N 22 32 12 17 - - -
30/05:00pm - - - - - N 28 43 15 23 - - -
30/04:30pm - - - - - NNW 28 44 15 24 - - -
30/04:00pm - - - - - NNW 28 43 15 23 - - -
30/03:30pm - - - - - N 33 46 18 25 - - -
30/03:00pm - - - - - NNW 35 46 19 25 - - -
30/02:30pm - - - - - NNW 41 59 22 32 - - -
30/02:11pm - - - - - NNW 33 54 18 29 - - -
30/02:00pm - - - - - N 32 44 17 24 - - -
30/01:46pm - - - - - NNW 32 50 17 27 - - -
30/01:30pm - - - - - NNW 39 52 21 28 - - -
30/01:04pm - - - - - NNW 35 59 19 32 - - -
30/01:00pm - - - - - NNW 33 50 18 27 - - -
30/12:30pm - - - - - NNW 33 56 18 30 - - -
30/12:02pm - - - - - NNW 33 57 18 31 - - -
30/12:00pm - - - - - N 32 50 17 27 - - -
30/11:39am - - - - - N 28 46 15 25 - - -
30/11:30am - - - - - N 32 44 17 24 - - -
30/11:11am - - - - - N 28 50 15 27 - - -
30/11:00am - - - - - N 28 44 15 24 - - -
30/10:33am - - - - - NNW 35 56 19 30 - - -
30/10:30am - - - - - NNW 33 46 18 25 - - -
30/10:00am - - - - - N 33 54 18 29 - - -
30/09:30am - - - - - N 35 54 19 29 - - -
30/09:11am - - - - - N 33 54 18 29 - - -
30/09:00am - - - - - N 28 48 15 26 - - -
30/08:30am - - - - - N 17 26 9 14 - - -
30/08:00am - - - - - N 17 24 9 13 - - -
30/07:30am - - - - - NNE 19 28 10 15 - - -
30/07:00am - - - - - NNE 17 26 9 14 - - -
30/06:30am - - - - - NE 9 15 5 8 - - -
30/06:00am - - - - - NE 4 6 2 3 - - -
30/05:30am - - - - - WNW 13 15 7 8 - - -
30/05:00am - - - - - NW 20 28 11 15 - - -
30/04:30am - - - - - NNW 22 33 12 18 - - -
30/04:00am - - - - - NNW 13 17 7 9 - - -
30/03:30am - - - - - NNW 11 17 6 9 - - -
30/03:00am - - - - - NNE 6 6 3 3 - - -
30/02:30am - - - - - N 4 4 2 2 - - -
30/02:00am - - - - - NW 7 7 4 4 - - -
30/01:30am - - - - - N 7 13 4 7 - - -
30/01:00am - - - - - NNW 13 20 7 11 - - -
30/12:30am - - - - - NNE 13 19 7 10 - - -
30/12:00am - - - - - NNE 15 20 8 11 - - -
 
Date/Time
EST
Temp
°C
App
Temp
°C
Dew
Point
°C
Rel
Hum
%
Delta-T
°C
Wind Press
QNH
hPa
Press
MSL
hPa
Rain since
9am
mm
Dir  Spd
km/h
Gust
km/h
Spd
kts
Gust
kts
29/11:30pm - - - - - NNE 15 22 8 12 - - -
29/11:00pm - - - - - NNE 17 24 9 13 - - -
29/10:30pm - - - - - NNE 19 26 10 14 - - -
29/10:00pm - - - - - NNE 17 24 9 13 - - -
29/09:30pm - - - - - NNE 13 19 7 10 - - -
29/09:00pm - - - - - NE 13 19 7 10 - - -
29/08:30pm - - - - - NNE 11 15 6 8 - - -
29/08:00pm - - - - - NNE 13 22 7 12 - - -
29/07:30pm - - - - - NNE 13 17 7 9 - - -
29/07:00pm - - - - - N 15 22 8 12 - - -
29/06:30pm - - - - - N 13 22 7 12 - - -
29/06:00pm - - - - - N 9 17 5 9 - - -
29/05:30pm - - - - - N 15 22 8 12 - - -
29/05:00pm - - - - - N 22 32 12 17 - - -
29/04:30pm - - - - - N 22 33 12 18 - - -
29/04:00pm - - - - - NNW 26 37 14 20 - - -
29/03:30pm - - - - - N 24 33 13 18 - - -
29/03:00pm - - - - - N 24 35 13 19 - - -
29/02:30pm - - - - - N 28 46 15 25 - - -
29/02:00pm - - - - - N 28 41 15 22 - - -
29/01:30pm - - - - - N 30 41 16 22 - - -
29/01:00pm - - - - - N 20 33 11 18 - - -
29/12:30pm - - - - - N 24 37 13 20 - - -
29/12:00pm - - - - - NNW 20 32 11 17 - - -
29/11:30am - - - - - NNE 11 22 6 12 - - -
29/11:00am - - - - - NE 11 20 6 11 - - -
29/10:30am - - - - - NE 15 20 8 11 - - -
29/10:00am - - - - - NNE 9 17 5 9 - - -
29/09:30am - - - - - NE 13 19 7 10 - - -
29/09:00am - - - - - NE 13 20 7 11 - - -
29/08:30am - - - - - NE 9 15 5 8 - - -
29/08:00am - - - - - NNE 7 9 4 5 - - -
29/07:30am - - - - - NE 9 13 5 7 - - -
29/07:00am - - - - - NE 6 7 3 4 - - -
29/06:30am - - - - - NNE 7 9 4 5 - - -
29/06:00am - - - - - NNE 7 11 4 6 - - -
29/05:30am - - - - - NE 6 7 3 4 - - -
29/05:00am - - - - - NE 6 9 3 5 - - -
29/04:30am - - - - - ENE 4 6 2 3 - - -
29/04:00am - - - - - N 6 7 3 4 - - -
29/03:30am - - - - - N 6 9 3 5 - - -
29/03:00am - - - - - N 6 7 3 4 - - -
29/02:30am - - - - - NE 6 6 3 3 - - -
29/02:00am - - - - - ENE 6 6 3 3 - - -
29/01:30am - - - - - ENE 4 4 2 2 - - -
29/01:00am - - - - - CALM 0 2 0 1 - - -
29/12:30am - - - - - E 2 6 1 3 - - -
29/12:00am - - - - - ESE 6 11 3 6 - - -
 
Date/Time
EST
Temp
°C
App
Temp
°C
Dew
Point
°C
Rel
Hum
%
Delta-T
°C
Wind Press
QNH
hPa
Press
MSL
hPa
Rain since
9am
mm
Dir  Spd
km/h
Gust
km/h
Spd
kts
Gust
kts
28/11:30pm - - - - - E 6 9 3 5 - - -
28/11:00pm - - - - - ESE 9 15 5 8 - - -
28/10:30pm - - - - - ESE 9 13 5 7 - - -
28/10:00pm - - - - - SE 7 11 4 6 - - -
28/09:30pm - - - - - SE 11 17 6 9 - - -
28/09:00pm - - - - - SE 15 20 8 11 - - -
28/08:30pm - - - - - SE 13 20 7 11 - - -
28/08:00pm - - - - - SE 15 20 8 11 - - -
28/07:30pm - - - - - SE 17 22 9 12 - - -
28/07:00pm - - - - - S 24 26 13 14 - - -
28/06:30pm - - - - - S 22 24 12 13 - - -
28/06:00pm - - - - - S 20 24 11 13 - - -
28/05:30pm - - - - - S 22 28 12 15 - - -
28/05:00pm - - - - - S 22 26 12 14 - - -
28/04:30pm - - - - - SSW 22 24 12 13 - - -
28/04:00pm - - - - - SSW 20 22 11 12 - - -
28/03:30pm - - - - - SSW 17 20 9 11 - - -
28/03:00pm - - - - - SW 17 20 9 11 - - -
28/02:30pm - - - - - SSW 19 22 10 12 - - -
28/02:00pm - - - - - SSW 19 20 10 11 - - -
28/01:30pm - - - - - SSW 19 24 10 13 - - -
28/01:00pm - - - - - SSW 17 20 9 11 - - -
28/12:30pm - - - - - SSW 13 19 7 10 - - -
28/12:00pm - - - - - SSW 11 15 6 8 - - -
28/11:30am - - - - - SSW 7 13 4 7 - - -
28/11:00am - - - - - SW 4 7 2 4 - - -
28/10:30am - - - - - SW 7 9 4 5 - - -
28/10:00am - - - - - WSW 13 17 7 9 - - -
28/09:30am - - - - - WSW 9 11 5 6 - - -

Other formats

Comma delimited format used in spreadsheet applications
http://www.bom.gov.au/fwo/IDV60801/IDV60801.95864.axf

JavaScript Object Notation format (JSON) in row-major order
http://www.bom.gov.au/fwo/IDV60801/IDV60801.95864.json

Data quality

Most of these data are generated automatically and are frequently updated. Quality checks on data are not normally performed. It is possible for incorrect values to appear. Refer to information at About Latest Weather Observations and please check the disclaimer before using these data.